sensor_id;sensor_type;location;lat;lon;timestamp;pressure;altitude;pressure_sealevel;temperature;humidity
58245;BME280;44550;43.864;25.986;2023-04-15T00:00:16;100267.72;;;13.25;79.24
58245;BME280;44550;43.864;25.986;2023-04-15T00:04:20;100279.06;;;13.24;79.44
58245;BME280;44550;43.864;25.986;2023-04-15T00:08:25;100275.56;;;13.23;79.30
58245;BME280;44550;43.864;25.986;2023-04-15T00:12:33;100284.34;;;13.25;80.29
58245;BME280;44550;43.864;25.986;2023-04-15T00:16:42;100284.28;;;13.31;79.45
58245;BME280;44550;43.864;25.986;2023-04-15T00:20:43;100293.72;;;13.46;79.10
58245;BME280;44550;43.864;25.986;2023-04-15T00:24:44;100278.69;;;13.57;78.82
58245;BME280;44550;43.864;25.986;2023-04-15T00:28:48;100282.81;;;13.78;78.19
58245;BME280;44550;43.864;25.986;2023-04-15T00:32:54;100290.06;;;14.20;77.25
58245;BME280;44550;43.864;25.986;2023-04-15T00:36:56;100294.97;;;14.43;75.57
58245;BME280;44550;43.864;25.986;2023-04-15T00:40:58;100300.06;;;14.55;75.81
58245;BME280;44550;43.864;25.986;2023-04-15T00:45:01;100314.28;;;14.42;76.78
58245;BME280;44550;43.864;25.986;2023-04-15T00:49:05;100306.72;;;14.20;74.52
58245;BME280;44550;43.864;25.986;2023-04-15T00:53:12;100302.91;;;14.41;73.51
58245;BME280;44550;43.864;25.986;2023-04-15T00:57:16;100317.84;;;14.39;75.51
58245;BME280;44550;43.864;25.986;2023-04-15T01:01:17;100316.53;;;14.10;80.79
58245;BME280;44550;43.864;25.986;2023-04-15T01:05:23;100321.25;;;13.84;83.15
58245;BME280;44550;43.864;25.986;2023-04-15T01:09:26;100320.03;;;14.11;82.65
58245;BME280;44550;43.864;25.986;2023-04-15T01:13:28;100316.84;;;13.88;84.14
58245;BME280;44550;43.864;25.986;2023-04-15T01:17:28;100303.75;;;13.84;85.71
58245;BME280;44550;43.864;25.986;2023-04-15T01:21:32;100311.50;;;13.92;85.38
58245;BME280;44550;43.864;25.986;2023-04-15T01:25:38;100318.63;;;13.85;85.93
58245;BME280;44550;43.864;25.986;2023-04-15T01:29:40;100334.28;;;13.95;84.96
58245;BME280;44550;43.864;25.986;2023-04-15T01:33:51;100350.72;;;14.10;84.28
58245;BME280;44550;43.864;25.986;2023-04-15T01:37:53;100357.47;;;14.28;83.83
58245;BME280;44550;43.864;25.986;2023-04-15T01:41:56;100353.50;;;13.97;84.54
58245;BME280;44550;43.864;25.986;2023-04-15T01:46:01;100354.63;;;13.77;86.32
58245;BME280;44550;43.864;25.986;2023-04-15T01:50:08;100347.66;;;13.75;86.85
58245;BME280;44550;43.864;25.986;2023-04-15T01:54:11;100347.75;;;13.67;86.91
58245;BME280;44550;43.864;25.986;2023-04-15T01:58:18;100346.03;;;13.65;87.42
58245;BME280;44550;43.864;25.986;2023-04-15T02:02:26;100362.34;;;13.90;86.68
58245;BME280;44550;43.864;25.986;2023-04-15T02:06:28;100357.84;;;14.01;85.54
58245;BME280;44550;43.864;25.986;2023-04-15T02:10:28;100344.91;;;13.85;86.50
58245;BME280;44550;43.864;25.986;2023-04-15T02:14:41;100342.69;;;13.50;88.22
58245;BME280;44550;43.864;25.986;2023-04-15T02:18:42;100329.34;;;13.67;88.48
58245;BME280;44550;43.864;25.986;2023-04-15T02:22:46;100327.25;;;13.94;87.22
58245;BME280;44550;43.864;25.986;2023-04-15T02:26:50;100322.69;;;14.06;87.24
58245;BME280;44550;43.864;25.986;2023-04-15T02:30:53;100349.00;;;14.06;86.78
58245;BME280;44550;43.864;25.986;2023-04-15T02:35:04;100349.19;;;13.93;88.01
58245;BME280;44550;43.864;25.986;2023-04-15T02:39:06;100360.69;;;13.82;88.91
58245;BME280;44550;43.864;25.986;2023-04-15T02:43:07;100371.75;;;13.38;91.14
58245;BME280;44550;43.864;25.986;2023-04-15T02:47:10;100355.53;;;12.90;94.01
58245;BME280;44550;43.864;25.986;2023-04-15T02:51:12;100330.22;;;12.81;94.68
58245;BME280;44550;43.864;25.986;2023-04-15T02:55:14;100302.34;;;12.73;95.41
58245;BME280;44550;43.864;25.986;2023-04-15T02:59:18;100329.22;;;12.99;94.82
58245;BME280;44550;43.864;25.986;2023-04-15T03:03:23;100357.00;;;13.22;92.94
58245;BME280;44550;43.864;25.986;2023-04-15T03:07:26;100366.44;;;13.39;91.84
58245;BME280;44550;43.864;25.986;2023-04-15T03:11:28;100365.75;;;13.19;91.88
58245;BME280;44550;43.864;25.986;2023-04-15T03:15:31;100347.81;;;12.73;94.62
58245;BME280;44550;43.864;25.986;2023-04-15T03:19:36;100337.44;;;12.59;95.94
58245;BME280;44550;43.864;25.986;2023-04-15T03:23:49;100329.78;;;12.32;97.11
58245;BME280;44550;43.864;25.986;2023-04-15T03:27:49;100356.09;;;12.10;97.83
58245;BME280;44550;43.864;25.986;2023-04-15T03:31:51;100377.09;;;12.09;98.32
58245;BME280;44550;43.864;25.986;2023-04-15T03:36:01;100401.50;;;12.17;97.96
58245;BME280;44550;43.864;25.986;2023-04-15T03:40:06;100411.97;;;12.20;98.04
58245;BME280;44550;43.864;25.986;2023-04-15T03:44:16;100400.72;;;11.96;99.97
58245;BME280;44550;43.864;25.986;2023-04-15T03:48:19;100406.00;;;11.80;100.00
58245;BME280;44550;43.864;25.986;2023-04-15T03:52:23;100400.78;;;11.84;100.00
58245;BME280;44550;43.864;25.986;2023-04-15T03:56:24;100402.38;;;12.14;100.00
58245;BME280;44550;43.864;25.986;2023-04-15T04:00:28;100405.81;;;12.29;99.33
58245;BME280;44550;43.864;25.986;2023-04-15T04:04:39;100403.13;;;12.42;98.28
58245;BME280;44550;43.864;25.986;2023-04-15T04:08:52;100402.22;;;12.46;97.61
58245;BME280;44550;43.864;25.986;2023-04-15T04:13:03;100393.13;;;12.95;96.49
58245;BME280;44550;43.864;25.986;2023-04-15T04:17:07;100400.72;;;13.27;93.33
58245;BME280;44550;43.864;25.986;2023-04-15T04:21:09;100399.50;;;13.60;92.35
58245;BME280;44550;43.864;25.986;2023-04-15T04:25:13;100409.00;;;13.71;91.13
58245;BME280;44550;43.864;25.986;2023-04-15T04:29:25;100390.91;;;14.19;88.08
58245;BME280;44550;43.864;25.986;2023-04-15T04:33:32;100389.31;;;14.05;87.87
58245;BME280;44550;43.864;25.986;2023-04-15T04:37:41;100410.16;;;13.47;91.28
58245;BME280;44550;43.864;25.986;2023-04-15T04:46:49;100429.00;;;12.90;94.93
58245;BME280;44550;43.864;25.986;2023-04-15T04:50:54;100444.28;;;13.48;92.77
58245;BME280;44550;43.864;25.986;2023-04-15T04:54:58;100437.75;;;13.88;89.31
58245;BME280;44550;43.864;25.986;2023-04-15T04:59:04;100435.84;;;13.99;88.76
58245;BME280;44550;43.864;25.986;2023-04-15T05:03:08;100447.41;;;13.84;91.41
58245;BME280;44550;43.864;25.986;2023-04-15T05:07:12;100435.84;;;13.99;91.16
58245;BME280;44550;43.864;25.986;2023-04-15T05:11:34;100463.16;;;13.85;90.67
58245;BME280;44550;43.864;25.986;2023-04-15T05:15:45;100460.97;;;14.23;89.36
58245;BME280;44550;43.864;25.986;2023-04-15T05:19:53;100450.59;;;14.78;86.85
58245;BME280;44550;43.864;25.986;2023-04-15T05:24:05;100467.31;;;14.74;84.56
58245;BME280;44550;43.864;25.986;2023-04-15T05:28:08;100477.03;;;14.71;83.73
58245;BME280;44550;43.864;25.986;2023-04-15T05:32:09;100483.41;;;14.53;85.33
58245;BME280;44550;43.864;25.986;2023-04-15T05:36:21;100485.91;;;14.62;84.13
58245;BME280;44550;43.864;25.986;2023-04-15T05:40:28;100490.81;;;14.88;83.39
58245;BME280;44550;43.864;25.986;2023-04-15T05:44:41;100494.13;;;15.01;81.29
58245;BME280;44550;43.864;25.986;2023-04-15T05:48:48;100483.06;;;14.76;81.13
58245;BME280;44550;43.864;25.986;2023-04-15T05:52:57;100491.09;;;14.68;81.43
58245;BME280;44550;43.864;25.986;2023-04-15T05:57:01;100488.47;;;14.67;82.05
58245;BME280;44550;43.864;25.986;2023-04-15T06:01:03;100489.00;;;14.92;81.02
58245;BME280;44550;43.864;25.986;2023-04-15T06:05:09;100482.19;;;15.33;78.67
58245;BME280;44550;43.864;25.986;2023-04-15T06:09:12;100483.31;;;15.70;76.68
58245;BME280;44550;43.864;25.986;2023-04-15T06:13:47;100477.53;;;15.98;76.36
58245;BME280;44550;43.864;25.986;2023-04-15T06:18:40;100484.97;;;16.23;77.46
58245;BME280;44550;43.864;25.986;2023-04-15T06:23:37;100487.19;;;16.83;73.01
58245;BME280;44550;43.864;25.986;2023-04-15T06:28:08;100495.13;;;16.83;72.29
58245;BME280;44550;43.864;25.986;2023-04-15T06:32:26;100499.88;;;16.65;73.74
58245;BME280;44550;43.864;25.986;2023-04-15T06:36:29;100496.44;;;17.02;71.37
58245;BME280;44550;43.864;25.986;2023-04-15T06:40:33;100498.44;;;17.63;66.64
58245;BME280;44550;43.864;25.986;2023-04-15T06:44:36;100499.84;;;17.77;63.57
58245;BME280;44550;43.864;25.986;2023-04-15T06:48:45;100518.59;;;17.32;65.90
58245;BME280;44550;43.864;25.986;2023-04-15T06:52:49;100516.97;;;16.48;69.31
58245;BME280;44550;43.864;25.986;2023-04-15T06:56:52;100517.09;;;16.83;69.56
58245;BME280;44550;43.864;25.986;2023-04-15T07:00:56;100522.56;;;16.74;69.04
58245;BME280;44550;43.864;25.986;2023-04-15T07:04:57;100511.38;;;17.03;67.56
58245;BME280;44550;43.864;25.986;2023-04-15T07:08:57;100512.03;;;17.49;63.98
58245;BME280;44550;43.864;25.986;2023-04-15T07:13:00;100514.34;;;17.61;64.55
58245;BME280;44550;43.864;25.986;2023-04-15T07:17:06;100514.44;;;17.22;64.51
58245;BME280;44550;43.864;25.986;2023-04-15T07:21:09;100525.47;;;17.40;64.35
58245;BME280;44550;43.864;25.986;2023-04-15T07:25:09;100532.81;;;17.27;65.54
58245;BME280;44550;43.864;25.986;2023-04-15T07:29:10;100537.97;;;17.67;62.71
58245;BME280;44550;43.864;25.986;2023-04-15T07:33:13;100544.53;;;17.88;65.41
58245;BME280;44550;43.864;25.986;2023-04-15T07:37:14;100556.06;;;16.71;69.79
58245;BME280;44550;43.864;25.986;2023-04-15T07:41:20;100565.66;;;16.33;66.79
58245;BME280;44550;43.864;25.986;2023-04-15T07:45:22;100573.47;;;16.82;66.88
58245;BME280;44550;43.864;25.986;2023-04-15T07:49:27;100575.75;;;16.98;68.79
58245;BME280;44550;43.864;25.986;2023-04-15T07:53:29;100583.06;;;17.63;69.06
58245;BME280;44550;43.864;25.986;2023-04-15T07:57:31;100586.47;;;17.30;69.74
58245;BME280;44550;43.864;25.986;2023-04-15T08:01:35;100595.38;;;17.26;69.59
58245;BME280;44550;43.864;25.986;2023-04-15T08:05:51;100601.19;;;17.42;67.79
58245;BME280;44550;43.864;25.986;2023-04-15T08:09:53;100604.81;;;17.74;66.41
58245;BME280;44550;43.864;25.986;2023-04-15T08:13:58;100609.97;;;17.43;65.81
58245;BME280;44550;43.864;25.986;2023-04-15T08:18:00;100624.34;;;17.31;68.07
58245;BME280;44550;43.864;25.986;2023-04-15T08:22:03;100616.78;;;17.90;66.00
58245;BME280;44550;43.864;25.986;2023-04-15T08:26:18;100620.06;;;18.00;65.12
58245;BME280;44550;43.864;25.986;2023-04-15T08:30:22;100628.28;;;17.88;64.26
58245;BME280;44550;43.864;25.986;2023-04-15T08:34:25;100623.00;;;17.88;66.48
58245;BME280;44550;43.864;25.986;2023-04-15T08:38:38;100623.53;;;17.66;65.87
58245;BME280;44550;43.864;25.986;2023-04-15T08:42:48;100626.38;;;17.18;67.44
58245;BME280;44550;43.864;25.986;2023-04-15T08:46:54;100627.72;;;17.37;65.69
58245;BME280;44550;43.864;25.986;2023-04-15T08:50:59;100623.91;;;17.12;65.23
58245;BME280;44550;43.864;25.986;2023-04-15T08:55:05;100627.94;;;17.66;64.67
58245;BME280;44550;43.864;25.986;2023-04-15T08:59:07;100627.16;;;17.60;63.54
58245;BME280;44550;43.864;25.986;2023-04-15T09:03:07;100636.03;;;17.59;63.93
58245;BME280;44550;43.864;25.986;2023-04-15T09:07:09;100633.53;;;18.25;60.25
58245;BME280;44550;43.864;25.986;2023-04-15T09:11:11;100632.25;;;17.70;63.68
58245;BME280;44550;43.864;25.986;2023-04-15T09:15:20;100633.84;;;17.78;64.43
58245;BME280;44550;43.864;25.986;2023-04-15T09:24:21;100636.88;;;17.97;61.59
58245;BME280;44550;43.864;25.986;2023-04-15T09:28:29;100628.66;;;18.41;61.29
58245;BME280;44550;43.864;25.986;2023-04-15T09:32:50;100630.09;;;18.21;62.36
58245;BME280;44550;43.864;25.986;2023-04-15T09:37:00;100633.63;;;18.22;62.07
58245;BME280;44550;43.864;25.986;2023-04-15T09:41:15;100636.38;;;18.83;59.28
58245;BME280;44550;43.864;25.986;2023-04-15T09:45:23;100633.47;;;18.90;55.29
58245;BME280;44550;43.864;25.986;2023-04-15T09:49:30;100626.97;;;19.02;57.72
58245;BME280;44550;43.864;25.986;2023-04-15T09:53:46;100610.97;;;19.33;57.38
58245;BME280;44550;43.864;25.986;2023-04-15T09:58:08;100605.75;;;19.02;54.85
58245;BME280;44550;43.864;25.986;2023-04-15T10:02:35;100618.00;;;18.76;55.23
58245;BME280;44550;43.864;25.986;2023-04-15T10:06:47;100608.19;;;19.38;55.79
58245;BME280;44550;43.864;25.986;2023-04-15T10:10:52;100614.13;;;20.01;53.12
58245;BME280;44550;43.864;25.986;2023-04-15T10:14:55;100606.13;;;20.27;51.21
58245;BME280;44550;43.864;25.986;2023-04-15T10:19:20;100611.63;;;19.69;44.76
58245;BME280;44550;43.864;25.986;2023-04-15T10:23:36;100606.00;;;19.79;44.46
58245;BME280;44550;43.864;25.986;2023-04-15T10:28:11;100611.19;;;20.08;44.99
58245;BME280;44550;43.864;25.986;2023-04-15T10:33:00;100600.09;;;20.47;48.05
58245;BME280;44550;43.864;25.986;2023-04-15T10:37:08;100606.53;;;20.15;48.92
58245;BME280;44550;43.864;25.986;2023-04-15T10:41:50;100618.22;;;19.84;44.05
58245;BME280;44550;43.864;25.986;2023-04-15T10:46:23;100610.47;;;20.03;46.40
58245;BME280;44550;43.864;25.986;2023-04-15T10:50:25;100609.25;;;20.13;47.35
58245;BME280;44550;43.864;25.986;2023-04-15T10:54:37;100601.13;;;20.43;45.81
58245;BME280;44550;43.864;25.986;2023-04-15T10:58:50;100612.00;;;20.35;44.23
58245;BME280;44550;43.864;25.986;2023-04-15T11:03:12;100601.00;;;20.46;39.57
58245;BME280;44550;43.864;25.986;2023-04-15T11:07:40;100601.75;;;20.98;37.16
58245;BME280;44550;43.864;25.986;2023-04-15T11:16:14;100610.88;;;21.15;36.41
58245;BME280;44550;43.864;25.986;2023-04-15T11:20:15;100605.78;;;21.08;36.59
58245;BME280;44550;43.864;25.986;2023-04-15T11:24:23;100597.25;;;21.22;36.25
58245;BME280;44550;43.864;25.986;2023-04-15T11:28:29;100598.78;;;21.29;38.09
58245;BME280;44550;43.864;25.986;2023-04-15T11:32:40;100597.03;;;20.83;37.17
58245;BME280;44550;43.864;25.986;2023-04-15T11:36:53;100601.34;;;21.31;35.96
58245;BME280;44550;43.864;25.986;2023-04-15T11:41:12;100598.75;;;21.07;36.37
58245;BME280;44550;43.864;25.986;2023-04-15T11:45:16;100601.16;;;21.37;36.38
58245;BME280;44550;43.864;25.986;2023-04-15T11:49:41;100599.34;;;21.60;36.35
58245;BME280;44550;43.864;25.986;2023-04-15T11:54:00;100605.09;;;21.49;37.23
58245;BME280;44550;43.864;25.986;2023-04-15T11:58:07;100598.16;;;21.67;36.79
58245;BME280;44550;43.864;25.986;2023-04-15T12:02:35;100593.56;;;21.92;36.03
58245;BME280;44550;43.864;25.986;2023-04-15T12:06:47;100593.13;;;21.81;35.93
58245;BME280;44550;43.864;25.986;2023-04-15T12:10:47;100580.41;;;21.88;36.08
58245;BME280;44550;43.864;25.986;2023-04-15T12:14:50;100572.75;;;22.22;35.36
58245;BME280;44550;43.864;25.986;2023-04-15T12:19:11;100573.25;;;22.31;35.01
58245;BME280;44550;43.864;25.986;2023-04-15T12:23:38;100570.59;;;22.31;35.33
58245;BME280;44550;43.864;25.986;2023-04-15T12:28:07;100569.50;;;22.16;35.40
58245;BME280;44550;43.864;25.986;2023-04-15T12:32:33;100566.69;;;22.19;34.18
58245;BME280;44550;43.864;25.986;2023-04-15T12:37:39;100562.22;;;21.99;34.57
58245;BME280;44550;43.864;25.986;2023-04-15T12:42:15;100554.97;;;22.62;33.86
58245;BME280;44550;43.864;25.986;2023-04-15T12:46:16;100558.84;;;22.14;34.20
58245;BME280;44550;43.864;25.986;2023-04-15T12:50:27;100561.00;;;22.66;33.01
58245;BME280;44550;43.864;25.986;2023-04-15T12:54:31;100559.72;;;22.15;34.58
58245;BME280;44550;43.864;25.986;2023-04-15T12:58:51;100557.16;;;22.34;35.24
58245;BME280;44550;43.864;25.986;2023-04-15T13:03:04;100563.56;;;22.30;34.78
58245;BME280;44550;43.864;25.986;2023-04-15T13:07:19;100561.78;;;22.49;33.98
58245;BME280;44550;43.864;25.986;2023-04-15T13:11:47;100559.41;;;22.81;34.35
58245;BME280;44550;43.864;25.986;2023-04-15T13:15:51;100568.56;;;22.56;33.74
58245;BME280;44550;43.864;25.986;2023-04-15T13:20:15;100576.66;;;22.73;34.16
58245;BME280;44550;43.864;25.986;2023-04-15T13:24:27;100580.25;;;22.72;32.97
58245;BME280;44550;43.864;25.986;2023-04-15T13:28:41;100570.22;;;22.98;32.81
58245;BME280;44550;43.864;25.986;2023-04-15T13:33:06;100568.88;;;23.26;30.82
58245;BME280;44550;43.864;25.986;2023-04-15T13:37:27;100577.31;;;23.16;31.19
58245;BME280;44550;43.864;25.986;2023-04-15T13:42:00;100568.94;;;22.86;31.43
58245;BME280;44550;43.864;25.986;2023-04-15T13:46:18;100582.22;;;23.07;30.99
58245;BME280;44550;43.864;25.986;2023-04-15T13:50:32;100573.84;;;23.33;30.54
58245;BME280;44550;43.864;25.986;2023-04-15T13:54:47;100579.19;;;23.70;28.62
58245;BME280;44550;43.864;25.986;2023-04-15T13:59:38;100579.97;;;23.35;30.06
58245;BME280;44550;43.864;25.986;2023-04-15T14:04:02;100583.09;;;23.07;30.40
58245;BME280;44550;43.864;25.986;2023-04-15T14:08:40;100575.53;;;22.98;31.25
58245;BME280;44550;43.864;25.986;2023-04-15T14:12:59;100577.88;;;22.85;31.18
58245;BME280;44550;43.864;25.986;2023-04-15T14:17:29;100578.84;;;23.03;31.35
58245;BME280;44550;43.864;25.986;2023-04-15T14:21:56;100577.47;;;22.94;31.02
58245;BME280;44550;43.864;25.986;2023-04-15T14:49:28;100591.31;;;22.24;32.84
58245;BME280;44550;43.864;25.986;2023-04-15T14:53:38;100598.88;;;22.13;34.00
58245;BME280;44550;43.864;25.986;2023-04-15T14:57:48;100598.47;;;22.01;34.13
58245;BME280;44550;43.864;25.986;2023-04-15T15:01:58;100606.91;;;21.91;34.77
58245;BME280;44550;43.864;25.986;2023-04-15T15:06:11;100611.84;;;21.79;35.38
58245;BME280;44550;43.864;25.986;2023-04-15T15:10:39;100614.31;;;21.62;35.46
58245;BME280;44550;43.864;25.986;2023-04-15T15:15:23;100612.88;;;21.75;35.92
58245;BME280;44550;43.864;25.986;2023-04-15T15:20:02;100613.94;;;21.71;37.11
58245;BME280;44550;43.864;25.986;2023-04-15T15:24:17;100616.81;;;21.87;36.08
58245;BME280;44550;43.864;25.986;2023-04-15T15:28:37;100615.44;;;21.56;36.40
58245;BME280;44550;43.864;25.986;2023-04-15T15:32:50;100614.56;;;21.56;37.02
58245;BME280;44550;43.864;25.986;2023-04-15T15:36:58;100619.28;;;21.49;35.92
58245;BME280;44550;43.864;25.986;2023-04-15T15:41:07;100610.75;;;21.18;35.76
58245;BME280;44550;43.864;25.986;2023-04-15T15:45:20;100606.72;;;21.07;36.59
58245;BME280;44550;43.864;25.986;2023-04-15T15:49:26;100603.88;;;21.12;36.89
58245;BME280;44550;43.864;25.986;2023-04-15T15:53:29;100600.38;;;21.33;36.28
58245;BME280;44550;43.864;25.986;2023-04-15T15:57:30;100597.31;;;21.44;36.52
58245;BME280;44550;43.864;25.986;2023-04-15T16:01:35;100593.97;;;21.39;36.91
58245;BME280;44550;43.864;25.986;2023-04-15T16:05:36;100587.56;;;21.21;37.08
58245;BME280;44550;43.864;25.986;2023-04-15T16:09:44;100588.41;;;21.22;37.37
58245;BME280;44550;43.864;25.986;2023-04-15T16:14:05;100589.97;;;21.27;37.46
58245;BME280;44550;43.864;25.986;2023-04-15T16:18:14;100580.56;;;20.97;37.71
58245;BME280;44550;43.864;25.986;2023-04-15T16:22:39;100580.66;;;20.94;38.20
58245;BME280;44550;43.864;25.986;2023-04-15T16:26:52;100575.94;;;21.24;37.31
58245;BME280;44550;43.864;25.986;2023-04-15T16:31:02;100576.91;;;20.99;37.78
58245;BME280;44550;43.864;25.986;2023-04-15T16:35:08;100574.53;;;20.92;37.78
58245;BME280;44550;43.864;25.986;2023-04-15T16:39:32;100581.59;;;20.69;38.21
58245;BME280;44550;43.864;25.986;2023-04-15T16:43:46;100579.34;;;20.58;38.74
58245;BME280;44550;43.864;25.986;2023-04-15T16:47:52;100567.09;;;20.29;39.41
58245;BME280;44550;43.864;25.986;2023-04-15T16:51:55;100579.31;;;20.10;40.40
58245;BME280;44550;43.864;25.986;2023-04-15T16:55:56;100585.03;;;19.98;40.97
58245;BME280;44550;43.864;25.986;2023-04-15T16:59:56;100589.03;;;19.84;41.36
58245;BME280;44550;43.864;25.986;2023-04-15T17:04:00;100595.69;;;19.69;41.85
58245;BME280;44550;43.864;25.986;2023-04-15T17:08:02;100597.72;;;19.61;41.94
58245;BME280;44550;43.864;25.986;2023-04-15T17:12:02;100592.81;;;19.77;42.30
58245;BME280;44550;43.864;25.986;2023-04-15T17:16:02;100594.38;;;19.83;41.27
58245;BME280;44550;43.864;25.986;2023-04-15T17:20:05;100608.16;;;19.67;41.98
58245;BME280;44550;43.864;25.986;2023-04-15T17:24:04;100610.59;;;19.45;42.74
58245;BME280;44550;43.864;25.986;2023-04-15T17:28:04;100619.75;;;19.35;43.66
58245;BME280;44550;43.864;25.986;2023-04-15T17:32:05;100621.34;;;19.13;44.64
58245;BME280;44550;43.864;25.986;2023-04-15T17:36:10;100629.84;;;18.94;46.23
58245;BME280;44550;43.864;25.986;2023-04-15T17:40:22;100639.25;;;18.75;47.21
58245;BME280;44550;43.864;25.986;2023-04-15T17:44:25;100646.56;;;18.64;48.07
58245;BME280;44550;43.864;25.986;2023-04-15T17:48:27;100643.41;;;18.51;49.10
58245;BME280;44550;43.864;25.986;2023-04-15T17:52:41;100650.56;;;18.47;49.51
58245;BME280;44550;43.864;25.986;2023-04-15T17:56:44;100643.50;;;18.48;49.48
58245;BME280;44550;43.864;25.986;2023-04-15T18:00:46;100654.19;;;18.45;48.90
58245;BME280;44550;43.864;25.986;2023-04-15T18:04:48;100656.59;;;18.52;48.78
58245;BME280;44550;43.864;25.986;2023-04-15T18:08:53;100660.25;;;18.48;48.64
58245;BME280;44550;43.864;25.986;2023-04-15T18:12:56;100661.34;;;18.41;48.47
58245;BME280;44550;43.864;25.986;2023-04-15T18:17:00;100660.16;;;18.51;48.29
58245;BME280;44550;43.864;25.986;2023-04-15T18:21:05;100672.00;;;18.38;48.36
58245;BME280;44550;43.864;25.986;2023-04-15T18:25:18;100668.88;;;18.22;48.94
58245;BME280;44550;43.864;25.986;2023-04-15T18:29:22;100672.69;;;18.12;49.32
58245;BME280;44550;43.864;25.986;2023-04-15T18:33:24;100681.41;;;18.14;49.07
58245;BME280;44550;43.864;25.986;2023-04-15T18:37:31;100678.34;;;17.97;48.96
58245;BME280;44550;43.864;25.986;2023-04-15T18:41:37;100680.47;;;17.81;49.83
58245;BME280;44550;43.864;25.986;2023-04-15T18:45:38;100692.69;;;17.88;49.61
58245;BME280;44550;43.864;25.986;2023-04-15T18:49:41;100687.56;;;17.80;49.86
58245;BME280;44550;43.864;25.986;2023-04-15T18:54:07;100690.25;;;17.77;49.73
58245;BME280;44550;43.864;25.986;2023-04-15T18:58:09;100697.38;;;17.74;49.84
58245;BME280;44550;43.864;25.986;2023-04-15T19:02:09;100692.47;;;17.57;49.99
58245;BME280;44550;43.864;25.986;2023-04-15T19:06:09;100696.16;;;17.50;50.12
58245;BME280;44550;43.864;25.986;2023-04-15T19:10:18;100702.50;;;17.43;50.77
58245;BME280;44550;43.864;25.986;2023-04-15T19:14:26;100692.97;;;17.34;51.22
58245;BME280;44550;43.864;25.986;2023-04-15T19:18:32;100697.59;;;17.26;51.81
58245;BME280;44550;43.864;25.986;2023-04-15T19:22:41;100696.13;;;17.11;52.50
58245;BME280;44550;43.864;25.986;2023-04-15T19:26:48;100698.28;;;16.92;53.26
58245;BME280;44550;43.864;25.986;2023-04-15T19:30:53;100675.91;;;16.63;53.55
58245;BME280;44550;43.864;25.986;2023-04-15T19:34:57;100690.78;;;16.67;53.35
58245;BME280;44550;43.864;25.986;2023-04-15T19:39:00;100695.41;;;16.56;53.16
58245;BME280;44550;43.864;25.986;2023-04-15T19:43:02;100690.09;;;16.58;53.12
58245;BME280;44550;43.864;25.986;2023-04-15T19:47:04;100698.16;;;16.50;53.74
58245;BME280;44550;43.864;25.986;2023-04-15T19:51:07;100700.97;;;16.41;54.45
58245;BME280;44550;43.864;25.986;2023-04-15T19:55:07;100696.44;;;16.48;54.96
58245;BME280;44550;43.864;25.986;2023-04-15T19:59:25;100698.56;;;16.27;54.70
58245;BME280;44550;43.864;25.986;2023-04-15T20:03:30;100700.59;;;16.13;55.14
58245;BME280;44550;43.864;25.986;2023-04-15T20:07:33;100698.09;;;16.02;54.59
58245;BME280;44550;43.864;25.986;2023-04-15T20:11:39;100700.94;;;15.90;54.98
58245;BME280;44550;43.864;25.986;2023-04-15T20:16:04;100702.50;;;16.02;54.81
58245;BME280;44550;43.864;25.986;2023-04-15T20:20:11;100692.19;;;15.89;55.26
58245;BME280;44550;43.864;25.986;2023-04-15T20:24:17;100705.13;;;16.02;55.14
58245;BME280;44550;43.864;25.986;2023-04-15T20:28:20;100706.78;;;16.09;55.24
58245;BME280;44550;43.864;25.986;2023-04-15T20:32:25;100705.84;;;16.13;55.92
58245;BME280;44550;43.864;25.986;2023-04-15T20:36:29;100698.75;;;16.15;55.40
58245;BME280;44550;43.864;25.986;2023-04-15T20:40:31;100697.91;;;16.14;55.13
58245;BME280;44550;43.864;25.986;2023-04-15T20:44:38;100704.19;;;16.07;55.34
58245;BME280;44550;43.864;25.986;2023-04-15T20:48:40;100703.22;;;16.13;55.38
58245;BME280;44550;43.864;25.986;2023-04-15T20:52:47;100700.53;;;16.16;55.20
58245;BME280;44550;43.864;25.986;2023-04-15T20:56:50;100701.41;;;16.15;55.44
58245;BME280;44550;43.864;25.986;2023-04-15T21:00:50;100699.66;;;16.14;55.52
58245;BME280;44550;43.864;25.986;2023-04-15T21:04:55;100701.41;;;16.15;55.65
58245;BME280;44550;43.864;25.986;2023-04-15T21:09:01;100698.09;;;16.04;56.38
58245;BME280;44550;43.864;25.986;2023-04-15T21:13:03;100699.94;;;15.97;57.10
58245;BME280;44550;43.864;25.986;2023-04-15T21:17:05;100699.09;;;15.95;56.99
58245;BME280;44550;43.864;25.986;2023-04-15T21:21:10;100698.41;;;15.82;57.65
58245;BME280;44550;43.864;25.986;2023-04-15T21:25:13;100700.44;;;15.66;58.72
58245;BME280;44550;43.864;25.986;2023-04-15T21:29:19;100693.66;;;15.45;59.53
58245;BME280;44550;43.864;25.986;2023-04-15T21:33:29;100711.41;;;15.31;60.49
58245;BME280;44550;43.864;25.986;2023-04-15T21:37:37;100703.66;;;15.19;61.14
58245;BME280;44550;43.864;25.986;2023-04-15T21:41:46;100705.50;;;15.12;61.49
58245;BME280;44550;43.864;25.986;2023-04-15T21:45:52;100705.56;;;15.06;62.32
58245;BME280;44550;43.864;25.986;2023-04-15T21:50:25;100699.69;;;14.87;63.43
58245;BME280;44550;43.864;25.986;2023-04-15T21:54:48;100692.78;;;14.75;65.62
58245;BME280;44550;43.864;25.986;2023-04-15T21:59:01;100694.59;;;14.69;66.59
58245;BME280;44550;43.864;25.986;2023-04-15T22:03:24;100706.91;;;14.68;67.35